Stebbins, AK (99671)

8:26 PM AKDT on July 24, 2016 (GMT -0800)
Unalakleet | | Change Station

Elev 20 ft 63.89 °N, 160.80 °W | Updated 10 minutes ago

Mostly Cloudy
Mostly Cloudy
64 °F
Feels Like 64 °F
N
12
Wind Variable Wind from NW

Today
High -- | Low -- °F
--% Chance of Precip.
Yesterday
High -- | Low -- °F
Precip. -- in
Pressure 29.66 in
Visibility 10.0 miles
Clouds Few 3500 ft
Mostly Cloudy 8000 ft
Dew Point 7 °F
Humidity 10%
Rainfall 0.00 in
Snow Depth Not available.
5:40 AM 0:08 AM
Waning Gibbous, 70% visible
METAR PAUN 250416Z AUTO 32010KT 10SM FEW035 BKN080 18/M14 A2966 RMK AO1
Pressure 29.66 in
Visibility 10.0 miles
Clouds Few 3500 ft
Mostly Cloudy 8000 ft
Dew Point 7 °F
Humidity 10%
Rainfall 0.00 in
Snow Depth Not available.
5:40 AM 0:08 AM
Waning Gibbous, 70% visible
METAR PAUN 250416Z AUTO 32010KT 10SM FEW035 BKN080 18/M14 A2966 RMK AO1

10-Day Weather Forecast

Almanac

Astronomy

Jul. 24, 2016 Rise Set
Actual Time
Civil Twilight
Nautical Twilight
Astronomical Twilight
Moon
Length of Visible Light
Length of Day
Tomorrow will be .
, % of the Moon is Illuminated

Today's Extremes

State Highs State Lows

Community

WunderPhotos

Upload Photos

1,927,264 photos uploaded!

WunderBlog® & News

Nearby

Air Quality

  Air Quality AQ Index Pollutant
Not available.

Snow Depth

Station Depth Elevation

Earthquake Activity

City Distance Mag. Time & Date
Minimum magnitude displayed is 2.5.

Coastal Water Temperatures

Place Temperature

Stations

Nearby Weather Stations

Station Location Temp. Windchill Dew Point Humidity Wind Precip. Elev Updated Type
                   

Watches & Warnings

There are currently no watches in effect.